Sunset Colony, South Dakota
Current Conditions -  °F | °C
As of 2:35 PM on Monday 24 Nov 2014 (Local Time) from KGWR Reporting Station
Clear Clear  
Wind Chill:   Ceiling: Unl
Heat Index: 25°   Visibility: 10mi
Dew Point: 12°   Wind: 25mph
Humidity: 59%   Direction: 340°NNW
Pressure: 29.84"   Gusts: 33mph
Location:  45.8144°N, 97.7089°W
Report Text: KGWR 242035Z AUTO 34022G29KT 10SM CLR M04/M11 A2984 RMK A01 P000
Loading
Personal Weather Stations






























Interactive Weather Map New forecast layout! Learn more

10-Day Weather Forecast

Advertisements
Track Severe Weather on mobile